createdAt,value
2018-09-10T00:01:14.127Z,82.30
2018-09-10T00:03:42.846Z,82.50
2018-09-10T00:06:11.327Z,82.80
2018-09-10T00:08:39.816Z,83.00
2018-09-10T00:11:08.426Z,83.20
2018-09-10T00:13:36.981Z,83.20
2018-09-10T00:16:05.760Z,82.80
2018-09-10T00:18:34.272Z,82.50
2018-09-10T00:21:02.911Z,82.70
2018-09-10T00:23:31.850Z,82.70
2018-09-10T00:26:00.944Z,83.00
2018-09-10T00:28:29.920Z,83.00
2018-09-10T00:30:58.432Z,82.40
2018-09-10T00:33:27.408Z,82.30
2018-09-10T00:35:56.128Z,82.50
2018-09-10T00:38:25.421Z,82.40
2018-09-10T00:40:54.069Z,82.20
2018-09-10T00:43:22.788Z,82.30
2018-09-10T00:45:51.284Z,82.40
2018-09-10T00:48:19.716Z,82.60
2018-09-10T00:50:48.398Z,82.70
2018-09-10T00:53:17.017Z,82.30
2018-09-10T00:55:46.292Z,82.40
2018-09-10T00:58:14.733Z,82.60
2018-09-10T01:00:43.853Z,83.10
2018-09-10T01:03:12.368Z,83.30
2018-09-10T01:05:40.844Z,83.50
2018-09-10T01:08:09.426Z,84.00
2018-09-10T01:10:38.123Z,84.00
2018-09-10T01:13:06.669Z,83.70
2018-09-10T01:15:35.409Z,84.00
2018-09-10T01:18:04.052Z,84.20
2018-09-10T01:20:33.513Z,84.10
2018-09-10T01:23:02.129Z,84.50
2018-09-10T01:25:30.737Z,84.40
2018-09-10T01:27:59.156Z,84.30
2018-09-10T01:30:27.780Z,84.10
2018-09-10T01:32:56.428Z,84.60
2018-09-10T01:35:25.052Z,83.90
2018-09-10T01:37:53.761Z,84.50
2018-09-10T01:40:22.244Z,85.30
2018-09-10T01:42:51.117Z,84.30
2018-09-10T01:45:19.532Z,84.10
2018-09-10T01:47:48.509Z,84.30
2018-09-10T01:50:17.854Z,84.80
2018-09-10T01:52:46.372Z,84.60
2018-09-10T01:55:14.780Z,84.40
2018-09-10T01:57:43.228Z,84.60
2018-09-10T02:00:12.189Z,85.10
2018-09-10T02:02:40.597Z,85.40
2018-09-10T02:05:09.140Z,86.00
2018-09-10T02:07:37.880Z,85.90
2018-09-10T02:10:07.224Z,85.40
2018-09-10T02:12:35.804Z,85.30
2018-09-10T02:15:04.303Z,85.90
2018-09-10T02:17:37.584Z,85.30
2018-09-10T02:20:06.234Z,85.70
2018-09-10T02:22:34.721Z,85.60
2018-09-10T02:25:03.252Z,84.80
2018-09-10T02:27:32.805Z,84.10
2018-09-10T02:30:01.186Z,84.50
2018-09-10T02:32:30.013Z,84.60
2018-09-10T02:34:58.982Z,84.80
2018-09-10T02:37:27.496Z,84.60
2018-09-10T02:39:56.649Z,83.90
2018-09-10T02:42:25.053Z,83.30
2018-09-10T02:44:53.518Z,83.30
2018-09-10T02:47:22.076Z,83.30
2018-09-10T02:49:50.464Z,82.80
2018-09-10T02:52:19.466Z,83.30
2018-09-10T02:54:48.617Z,83.30
2018-09-10T02:57:17.961Z,82.70
2018-09-10T02:59:46.548Z,82.40
2018-09-10T03:02:15.553Z,82.50
2018-09-10T03:04:45.350Z,82.10
2018-09-10T03:07:15.509Z,82.60
2018-09-10T03:09:44.527Z,82.00
2018-09-10T03:12:13.143Z,81.60
2018-09-10T03:14:41.771Z,82.00
2018-09-10T03:17:10.440Z,82.40
2018-09-10T03:19:39.080Z,82.60
2018-09-10T03:22:07.454Z,82.00
2018-09-10T03:24:35.878Z,82.00
2018-09-10T03:27:04.953Z,82.10
2018-09-10T03:29:33.344Z,81.70
2018-09-10T03:32:01.813Z,81.90
2018-09-10T03:34:30.201Z,81.60
2018-09-10T03:36:58.905Z,81.90
2018-09-10T03:39:27.418Z,82.30
2018-09-10T03:41:55.946Z,82.60
2018-09-10T03:44:24.364Z,82.30
2018-09-10T03:46:52.789Z,82.00
2018-09-10T03:49:21.456Z,81.90
2018-09-10T03:51:50.677Z,82.00
2018-09-10T03:54:19.788Z,82.30
2018-09-10T03:56:48.900Z,82.70
2018-09-10T03:59:18.027Z,81.90
2018-09-10T04:01:46.590Z,82.10
2018-09-10T04:04:15.920Z,82.40
2018-09-10T04:06:44.465Z,82.40
2018-09-10T04:09:12.865Z,82.10
2018-09-10T04:11:41.944Z,82.20
2018-09-10T04:14:10.504Z,81.90
2018-09-10T04:16:39.753Z,82.20
2018-09-10T04:19:08.208Z,81.10
2018-09-10T04:21:36.721Z,81.10
2018-09-10T04:24:05.288Z,81.10
2018-09-10T04:26:33.893Z,81.20
2018-09-10T04:29:02.325Z,81.40
2018-09-10T04:31:30.828Z,80.80
2018-09-10T04:33:59.314Z,80.60
2018-09-10T04:36:28.108Z,80.80
2018-09-10T04:38:56.589Z,80.60
2018-09-10T04:41:25.147Z,80.40
2018-09-10T04:43:53.669Z,80.70
2018-09-10T04:46:22.712Z,80.90
2018-09-10T04:48:51.232Z,80.80
2018-09-10T04:51:19.697Z,80.30
2018-09-10T04:53:48.877Z,80.40
2018-09-10T04:56:17.488Z,80.70
2018-09-10T04:58:46.048Z,81.00
2018-09-10T05:01:14.709Z,80.70
2018-09-10T05:03:43.456Z,80.80
2018-09-10T05:06:12.624Z,80.00
2018-09-10T05:08:41.316Z,80.40
2018-09-10T05:11:09.915Z,80.80
2018-09-10T05:13:38.477Z,79.80
2018-09-10T05:16:06.871Z,80.00
2018-09-10T05:18:35.459Z,79.80
2018-09-10T05:21:03.957Z,79.60
2018-09-10T05:23:32.868Z,79.80
2018-09-10T05:26:01.296Z,80.00
2018-09-10T05:28:29.867Z,79.60
2018-09-10T05:30:58.384Z,79.90
2018-09-10T05:33:27.104Z,79.90
2018-09-10T05:35:56.473Z,79.90
2018-09-10T05:38:24.957Z,79.80
2018-09-10T05:40:54.109Z,79.90
2018-09-10T05:43:23.341Z,80.30
2018-09-10T05:45:51.863Z,79.40
2018-09-10T05:48:20.292Z,79.00
2018-09-10T05:50:48.721Z,78.90
2018-09-10T05:53:18.022Z,78.90
2018-09-10T05:55:47.013Z,78.90
2018-09-10T05:58:16.197Z,78.60
2018-09-10T06:00:44.645Z,78.00
2018-09-10T06:03:13.966Z,78.20
2018-09-10T06:05:42.561Z,77.60
2018-09-10T06:08:11.023Z,77.60
2018-09-10T06:10:40.080Z,77.50
2018-09-10T06:13:09.352Z,78.30
2018-09-10T06:15:38.008Z,78.50
2018-09-10T06:18:06.672Z,79.20
2018-09-10T06:20:35.533Z,78.30
2018-09-10T06:23:03.941Z,77.60
2018-09-10T06:25:32.653Z,77.80
2018-09-10T06:28:01.373Z,78.20
2018-09-10T06:32:59.013Z,76.40
2018-09-10T06:35:27.605Z,78.10
2018-09-10T06:37:56.090Z,77.50
2018-09-10T06:40:25.114Z,77.50
2018-09-10T06:42:53.665Z,78.50
2018-09-10T06:45:22.709Z,77.60
2018-09-10T06:47:51.630Z,77.90
2018-09-10T06:50:20.073Z,78.70
2018-09-10T06:52:48.644Z,77.00
2018-09-10T06:55:18.170Z,77.70
2018-09-10T06:57:46.744Z,77.10
2018-09-10T07:00:15.425Z,78.50
2018-09-10T07:02:45.024Z,78.50
2018-09-10T07:05:13.694Z,77.90
2018-09-10T07:07:42.381Z,76.70
2018-09-10T07:10:10.912Z,78.70
2018-09-10T07:12:39.497Z,76.90
2018-09-10T07:15:08.024Z,76.10
2018-09-10T07:17:36.615Z,77.70
2018-09-10T07:20:06.428Z,75.10
2018-09-10T07:22:35.944Z,75.60
2018-09-10T07:25:04.850Z,76.40
2018-09-10T07:27:33.256Z,74.90
2018-09-10T07:30:01.878Z,75.20
2018-09-10T07:32:30.306Z,75.50
2018-09-10T07:34:58.823Z,76.60
2018-09-10T07:37:27.517Z,77.30
2018-09-10T07:39:56.041Z,77.50
2018-09-10T07:42:25.358Z,77.50
2018-09-10T07:44:54.716Z,78.20
2018-09-10T07:47:23.717Z,77.20
2018-09-10T07:49:52.356Z,77.60
2018-09-10T07:52:21.629Z,77.40
2018-09-10T07:54:50.328Z,76.90
2018-09-10T07:57:19.305Z,77.10
2018-09-10T07:59:48.297Z,77.90
2018-09-10T18:16:54.905Z,74.50
2018-09-10T18:19:24.117Z,74.80
2018-09-10T18:21:52.747Z,75.00
2018-09-10T18:24:21.913Z,74.90
2018-09-10T18:26:51.142Z,74.60
2018-09-10T18:29:19.765Z,74.30
2018-09-10T18:31:48.422Z,74.40
2018-09-10T18:34:16.998Z,75.00
2018-09-10T18:36:45.981Z,75.00
2018-09-10T18:39:16.860Z,75.70
2018-09-10T18:41:45.391Z,75.60
2018-09-10T18:44:14.060Z,75.10
2018-09-10T18:46:42.732Z,74.80
2018-09-10T18:49:11.374Z,75.40
2018-09-10T18:51:40.333Z,75.00
2018-09-10T18:54:09.508Z,75.00
2018-09-10T18:56:38.014Z,74.90
2018-09-10T18:59:07.124Z,76.20
2018-09-10T19:01:35.778Z,76.70
2018-09-10T19:04:04.537Z,75.60
2018-09-10T19:06:33.407Z,76.00
2018-09-10T19:09:02.902Z,75.50
2018-09-10T19:11:33.243Z,76.90
2018-09-10T19:14:02.028Z,76.30
2018-09-10T19:16:30.594Z,76.60
2018-09-10T19:18:59.266Z,76.70
2018-09-10T19:21:28.101Z,76.90
2018-09-10T19:23:57.465Z,77.40
2018-09-10T19:26:25.933Z,77.20
2018-09-10T19:28:54.601Z,77.00
2018-09-10T19:31:23.308Z,77.80
2018-09-10T19:33:53.014Z,77.30
2018-09-10T19:36:21.916Z,77.30
2018-09-10T19:38:50.642Z,77.30
2018-09-10T19:41:19.901Z,77.40
2018-09-10T19:43:48.488Z,77.50
2018-09-10T19:46:17.186Z,79.20
2018-09-10T19:48:45.726Z,78.40
2018-09-10T19:51:14.284Z,78.60
2018-09-10T19:53:43.248Z,78.20
2018-09-10T19:56:11.841Z,78.20
2018-09-10T19:58:40.374Z,77.40
2018-09-10T20:01:08.913Z,76.80
2018-09-10T20:03:37.471Z,77.40
2018-09-10T20:06:05.970Z,77.80
2018-09-10T20:08:35.177Z,77.90
2018-09-10T20:11:03.917Z,77.20
2018-09-10T20:13:33.351Z,77.70
2018-09-10T20:16:02.773Z,78.00
2018-09-10T20:18:31.327Z,78.00
2018-09-10T20:21:00.001Z,77.90
2018-09-10T20:23:28.637Z,78.50
2018-09-10T20:25:58.032Z,77.90
2018-09-10T20:28:26.728Z,78.60
2018-09-10T20:30:55.428Z,78.50
2018-09-10T20:33:24.000Z,78.00
2018-09-10T20:36:00.208Z,78.00
2018-09-10T20:38:28.760Z,77.80
2018-09-10T20:40:58.017Z,78.70
2018-09-10T20:43:27.568Z,78.50
2018-09-10T20:45:56.294Z,78.60
2018-09-10T20:48:25.285Z,78.60
2018-09-10T20:50:54.388Z,77.90
2018-09-10T20:53:22.845Z,78.90
2018-09-10T20:55:52.009Z,78.40
2018-09-10T20:58:20.549Z,77.80
2018-09-10T21:00:49.192Z,78.40
2018-09-10T21:03:17.815Z,77.30
2018-09-10T21:05:46.480Z,77.80
2018-09-10T21:08:15.206Z,78.00
2018-09-10T21:10:43.889Z,78.70
2018-09-10T21:13:12.483Z,78.20
2018-09-10T21:15:40.908Z,78.80
2018-09-10T21:18:09.957Z,78.40
2018-09-10T21:20:38.501Z,79.60
2018-09-10T21:23:07.596Z,80.00
2018-09-10T21:25:36.216Z,79.30
2018-09-10T21:28:05.487Z,79.90
2018-09-10T21:30:33.886Z,79.20
2018-09-10T21:33:03.316Z,78.20
2018-09-10T21:35:32.464Z,78.80
2018-09-10T21:38:00.928Z,79.00
2018-09-10T21:40:29.861Z,79.00
2018-09-10T21:42:58.456Z,79.20
2018-09-10T21:45:27.103Z,78.80
2018-09-10T21:47:55.524Z,79.20
2018-09-10T21:50:24.287Z,79.80
2018-09-10T21:52:53.518Z,79.60
2018-09-10T21:55:22.736Z,80.10
2018-09-10T21:57:51.274Z,79.30
2018-09-10T22:00:19.871Z,79.20
2018-09-10T22:02:48.977Z,79.90
2018-09-10T22:05:17.567Z,79.70
2018-09-10T22:07:46.801Z,79.80
2018-09-10T22:10:15.307Z,80.90
2018-09-10T22:12:44.383Z,79.90
2018-09-10T22:15:12.898Z,80.00
2018-09-10T22:17:41.884Z,79.70
2018-09-10T22:20:11.346Z,80.40
2018-09-10T22:22:39.807Z,79.60
2018-09-10T22:25:10.148Z,79.20
2018-09-10T22:27:39.171Z,79.50
2018-09-10T22:30:08.204Z,79.40
2018-09-10T22:32:36.663Z,79.90
2018-09-10T22:35:05.299Z,80.20
2018-09-10T22:37:33.808Z,79.80
2018-09-10T22:40:02.209Z,79.80
2018-09-10T22:42:31.285Z,79.60
2018-09-10T22:44:59.916Z,79.80
2018-09-10T22:47:28.801Z,78.70
2018-09-10T22:49:57.229Z,78.40
2018-09-10T22:52:25.885Z,80.30
2018-09-10T22:54:54.907Z,80.50
2018-09-10T22:57:24.133Z,80.90
2018-09-10T22:59:53.941Z,80.80
2018-09-10T23:02:22.492Z,81.10
2018-09-10T23:04:51.266Z,80.90
2018-09-10T23:07:19.764Z,80.50
2018-09-10T23:09:49.025Z,80.80
2018-09-10T23:12:17.593Z,81.10
2018-09-10T23:14:46.264Z,81.40
2018-09-10T23:17:14.978Z,81.30
2018-09-10T23:19:43.375Z,81.50
2018-09-10T23:22:11.789Z,81.60
2018-09-10T23:24:41.050Z,81.70
2018-09-10T23:27:09.564Z,81.70
2018-09-10T23:29:38.599Z,82.30
2018-09-10T23:32:07.228Z,82.20
2018-09-10T23:34:35.849Z,82.10
2018-09-10T23:37:04.697Z,82.30
2018-09-10T23:39:33.207Z,82.60
2018-09-10T23:42:01.850Z,82.50
2018-09-10T23:44:30.963Z,82.50
2018-09-10T23:46:59.904Z,83.20
2018-09-10T23:49:28.375Z,83.20
2018-09-10T23:51:56.997Z,83.70
2018-09-10T23:54:25.448Z,83.80
2018-09-10T23:56:54.057Z,83.60
2018-09-10T23:59:22.502Z,84.50
